createdAt,value
2023-02-20T00:01:55.999Z,102414.94
2023-02-20T00:04:23.285Z,102413.22
2023-02-20T00:06:50.230Z,102414.94
2023-02-20T00:09:17.339Z,102409.59
2023-02-20T00:11:44.228Z,102407.66
2023-02-20T00:14:11.106Z,102414.31
2023-02-20T00:16:38.239Z,102421.00
2023-02-20T00:19:05.953Z,102398.66
2023-02-20T00:21:32.859Z,102410.31
2023-02-20T00:23:59.709Z,102397.22
2023-02-20T00:26:26.646Z,102402.53
2023-02-20T00:28:53.574Z,102386.06
2023-02-20T00:31:20.784Z,102392.13
2023-02-20T00:33:47.826Z,102394.09
2023-02-20T00:36:16.264Z,102371.75
2023-02-20T00:38:44.500Z,102373.69
2023-02-20T00:41:12.603Z,102378.91
2023-02-20T00:43:39.650Z,102374.78
2023-02-20T00:46:06.569Z,102373.09
2023-02-20T00:48:33.581Z,102369.44
2023-02-20T00:51:00.376Z,102367.75
2023-02-20T00:53:27.176Z,102361.34
2023-02-20T00:55:54.064Z,102350.66
2023-02-20T00:58:20.922Z,102361.34
2023-02-20T01:00:47.832Z,102363.53
2023-02-20T01:03:14.887Z,102361.59
2023-02-20T01:05:41.781Z,102349.81
2023-02-20T01:08:08.680Z,102351.75
2023-02-20T01:10:35.544Z,102345.34
2023-02-20T01:13:04.840Z,102347.00
2023-02-20T01:15:31.770Z,102338.91
2023-02-20T01:17:59.113Z,102341.94
2023-02-20T01:20:26.038Z,102342.78
2023-02-20T01:22:53.795Z,102326.28
2023-02-20T01:25:20.969Z,102329.69
2023-02-20T01:27:47.856Z,102327.75
2023-02-20T01:30:15.617Z,102327.13
2023-02-20T01:32:42.887Z,102319.63
2023-02-20T01:35:09.942Z,102319.00
2023-02-20T01:37:39.101Z,102319.84
2023-02-20T01:40:07.222Z,102318.19
2023-02-20T01:42:34.881Z,102320.72
2023-02-20T01:45:04.851Z,102316.81
2023-02-20T01:47:31.860Z,102311.75
2023-02-20T01:50:03.606Z,102310.63
2023-02-20T01:52:32.315Z,102305.06
2023-02-20T01:55:02.261Z,102307.03
2023-02-20T01:57:30.863Z,102313.44
2023-02-20T02:00:01.174Z,102308.97
2023-02-20T02:02:31.164Z,102296.69
2023-02-20T02:04:58.135Z,102291.94
2023-02-20T02:07:25.159Z,102295.88
2023-02-20T02:09:55.225Z,102299.97
2023-02-20T02:12:23.043Z,102302.53
2023-02-20T02:14:50.433Z,102300.22
2023-02-20T02:17:20.389Z,102306.88
2023-02-20T02:19:50.690Z,102289.28
2023-02-20T02:22:31.462Z,102291.25
2023-02-20T02:25:01.423Z,102285.66
2023-02-20T02:27:28.561Z,102291.25
2023-02-20T02:29:58.479Z,102287.34
2023-02-20T02:32:28.456Z,102281.78
2023-02-20T02:35:04.544Z,102270.25
2023-02-20T02:37:34.703Z,102283.97
2023-02-20T02:40:05.260Z,102274.72
2023-02-20T02:42:35.328Z,102268.56
2023-02-20T02:45:03.531Z,102268.06
2023-02-20T02:47:35.728Z,102266.97
2023-02-20T02:50:05.689Z,102259.34
2023-02-20T02:52:36.476Z,102267.47
2023-02-20T02:55:03.367Z,102261.88
2023-02-20T02:57:30.416Z,102260.22
2023-02-20T03:00:00.954Z,102264.31
2023-02-20T03:02:31.938Z,102257.91
2023-02-20T03:04:59.675Z,102253.44
2023-02-20T03:07:27.227Z,102254.00
2023-02-20T03:09:58.851Z,102260.69
2023-02-20T03:12:26.719Z,102253.44
2023-02-20T03:15:02.257Z,102250.38
2023-02-20T03:17:32.018Z,102258.16
2023-02-20T03:20:01.181Z,102252.81
2023-02-20T03:22:31.055Z,102244.47
2023-02-20T03:25:02.224Z,102248.94
2023-02-20T03:27:29.331Z,102250.28
2023-02-20T03:29:58.780Z,102250.28
2023-02-20T03:32:30.700Z,102246.06
2023-02-20T03:35:01.067Z,102249.44
2023-02-20T03:37:32.166Z,102260.56
2023-02-20T03:40:04.424Z,102262.28
2023-02-20T03:42:37.403Z,102249.44
2023-02-20T03:45:05.321Z,102266.44
2023-02-20T03:47:35.512Z,102266.16
2023-02-20T03:50:06.871Z,102257.56
2023-02-20T03:52:33.735Z,102252.47
2023-02-20T03:55:00.466Z,102255.00
2023-02-20T03:57:30.803Z,102253.34
2023-02-20T04:00:02.302Z,102252.47
2023-02-20T04:02:31.896Z,102254.19
2023-02-20T04:05:00.453Z,102249.44
2023-02-20T04:07:31.083Z,102248.84
2023-02-20T04:10:00.925Z,102252.72
2023-02-20T04:12:30.121Z,102254.41
2023-02-20T04:14:58.479Z,102256.59
2023-02-20T04:17:27.549Z,102259.38
2023-02-20T04:19:54.278Z,102262.19
2023-02-20T04:22:25.180Z,102263.03
2023-02-20T04:24:56.207Z,102261.09
2023-02-20T04:27:23.171Z,102262.78
2023-02-20T04:29:49.935Z,102260.00
2023-02-20T04:32:19.056Z,102256.59
2023-02-20T04:34:46.436Z,102248.84
2023-02-20T04:37:14.370Z,102259.38
2023-02-20T04:39:41.171Z,102267.75
2023-02-20T04:42:08.290Z,102260.00
2023-02-20T04:44:35.572Z,102256.59
2023-02-20T04:47:03.840Z,102262.44
2023-02-20T04:49:30.622Z,102263.28
2023-02-20T04:51:57.335Z,102269.97
2023-02-20T04:54:24.586Z,102262.69
2023-02-20T04:56:53.520Z,102263.53
2023-02-20T04:59:20.590Z,102280.28
2023-02-20T05:01:49.711Z,102270.53
2023-02-20T05:04:16.608Z,102271.91
2023-02-20T05:06:44.845Z,102274.06
2023-02-20T05:09:11.618Z,102278.56
2023-02-20T05:11:38.643Z,102277.72
2023-02-20T05:14:05.695Z,102266.56
2023-02-20T05:16:32.389Z,102273.84
2023-02-20T05:19:00.971Z,102272.47
2023-02-20T05:21:31.314Z,102275.78
2023-02-20T05:23:58.033Z,102274.94
2023-02-20T05:26:24.833Z,102274.94
2023-02-20T05:28:51.544Z,102272.41
2023-02-20T05:31:18.398Z,102275.44
2023-02-20T05:33:45.148Z,102278.00
2023-02-20T05:36:14.360Z,102281.88
2023-02-20T05:38:42.044Z,102279.94
2023-02-20T05:41:08.906Z,102280.78
2023-02-20T05:43:35.636Z,102281.88
2023-02-20T05:46:02.415Z,102279.06
2023-02-20T05:48:29.136Z,102279.31
2023-02-20T05:50:55.812Z,102285.75
2023-02-20T05:53:27.268Z,102282.72
2023-02-20T05:55:56.211Z,102269.00
2023-02-20T05:58:23.469Z,102272.66
2023-02-20T06:00:50.272Z,102265.38
2023-02-20T06:03:17.549Z,102265.38
2023-02-20T06:05:44.411Z,102269.84
2023-02-20T06:08:11.139Z,102264.28
2023-02-20T06:10:40.102Z,102265.13
2023-02-20T06:13:06.858Z,102270.72
2023-02-20T06:15:33.516Z,102260.63
2023-02-20T06:18:00.260Z,102257.00
2023-02-20T06:20:26.979Z,102262.56
2023-02-20T06:22:53.686Z,102269.84
2023-02-20T06:25:20.594Z,102272.03
2023-02-20T06:27:47.289Z,102262.34
2023-02-20T06:30:14.437Z,102269.25
2023-02-20T06:32:41.466Z,102270.09
2023-02-20T06:35:08.608Z,102264.78
2023-02-20T06:37:35.371Z,102266.47
2023-02-20T06:40:03.526Z,102255.31
2023-02-20T06:42:30.254Z,102258.09
2023-02-20T06:44:56.958Z,102250.56
2023-02-20T06:47:23.678Z,102246.69
2023-02-20T06:49:50.717Z,102260.41
2023-02-20T06:52:17.466Z,102257.84
2023-02-20T06:54:44.282Z,102250.34
2023-02-20T06:57:11.191Z,102237.25
2023-02-20T06:59:41.667Z,102243.66
2023-02-20T07:02:11.507Z,102242.22
2023-02-20T07:04:38.202Z,102243.06
2023-02-20T07:07:04.976Z,102247.53
2023-02-20T07:09:31.710Z,102240.03
2023-02-20T07:11:58.669Z,102233.00
2023-02-20T07:14:25.732Z,102240.50
2023-02-20T07:16:52.412Z,102239.41
2023-02-20T07:19:19.176Z,102220.16
2023-02-20T07:21:47.126Z,102225.75
2023-02-20T07:24:13.876Z,102226.56
2023-02-20T07:26:40.802Z,102224.91
2023-02-20T07:29:07.835Z,102230.19
2023-02-20T07:31:36.931Z,102221.84
2023-02-20T07:34:03.834Z,102226.56
2023-02-20T07:36:30.611Z,102233.25
2023-02-20T07:38:58.740Z,102232.66
2023-02-20T07:41:26.987Z,102232.66
2023-02-20T07:43:53.833Z,102227.06
2023-02-20T07:46:23.240Z,102228.78
2023-02-20T07:48:50.174Z,102226.84
2023-02-20T07:51:17.198Z,102225.97
2023-02-20T07:53:47.262Z,102213.38
2023-02-20T07:56:14.411Z,102229.84
2023-02-20T07:58:41.449Z,102239.06
2023-02-20T08:01:08.346Z,102250.00
2023-02-20T08:03:35.323Z,102239.06
2023-02-20T08:06:02.266Z,102241.63
2023-02-20T08:08:29.183Z,102246.00
2023-02-20T08:11:03.554Z,102246.81
2023-02-20T08:13:35.270Z,102250.47
2023-02-20T08:16:02.197Z,102251.31
2023-02-20T08:18:29.080Z,102244.88
2023-02-20T08:20:56.005Z,102248.53
2023-02-20T08:23:24.593Z,102254.63
2023-02-20T08:25:52.411Z,102265.53
2023-02-20T08:28:19.663Z,102265.75
2023-02-20T08:30:46.606Z,102260.19
2023-02-20T08:33:13.824Z,102274.72
2023-02-20T08:35:40.928Z,102269.41
2023-02-20T08:38:22.314Z,102273.03
2023-02-20T08:40:49.232Z,102279.19
2023-02-20T08:43:16.165Z,102276.91
2023-02-20T08:45:43.035Z,102273.63
2023-02-20T08:48:10.099Z,102289.50
2023-02-20T08:50:37.025Z,102281.41
2023-02-20T08:53:03.919Z,102284.19
2023-02-20T08:55:30.939Z,102288.41
2023-02-20T08:57:57.873Z,102289.78
2023-02-20T09:00:24.961Z,102276.69
2023-02-20T09:02:51.996Z,102278.63
2023-02-20T09:05:19.189Z,102273.03
2023-02-20T09:07:46.116Z,102270.25
2023-02-20T09:10:13.241Z,102274.97
2023-02-20T09:12:42.503Z,102282.25
2023-02-20T09:15:10.802Z,102275.84
2023-02-20T09:17:38.158Z,102268.56
2023-02-20T09:20:10.021Z,102271.09
2023-02-20T09:22:37.275Z,102262.75
2023-02-20T09:25:05.595Z,102264.31
2023-02-20T09:27:32.554Z,102264.31
2023-02-20T09:29:59.544Z,102274.97
2023-02-20T09:32:26.552Z,102265.75
2023-02-20T09:34:53.581Z,102255.94
2023-02-20T09:37:20.639Z,102262.13
2023-02-20T09:39:47.622Z,102264.91
2023-02-20T09:42:14.850Z,102253.16
2023-02-20T09:44:42.060Z,102273.50
2023-02-20T09:47:20.448Z,102255.69
2023-02-20T09:49:47.591Z,102256.78
2023-02-20T09:52:16.491Z,102258.50
2023-02-20T09:54:48.321Z,102250.72
2023-02-20T09:57:17.560Z,102267.47
2023-02-20T09:59:47.461Z,102258.50
2023-02-20T10:02:17.847Z,102252.91
2023-02-20T10:05:00.403Z,102260.44
2023-02-20T10:07:28.707Z,102263.22
2023-02-20T10:09:56.505Z,102248.19
2023-02-20T10:12:26.537Z,102252.06
2023-02-20T10:15:00.623Z,102240.91
2023-02-20T10:17:30.751Z,102246.25
2023-02-20T10:20:00.740Z,102248.19
2023-02-20T10:22:30.851Z,102254.38
2023-02-20T10:25:00.891Z,102259.34
2023-02-20T10:27:31.863Z,102249.03
2023-02-20T10:30:00.131Z,102253.75
2023-02-20T10:32:30.343Z,102242.59
2023-02-20T10:35:00.456Z,102239.81
2023-02-20T10:37:45.258Z,102237.88
2023-02-20T10:40:18.988Z,102242.38
2023-02-20T10:42:51.787Z,102243.22
2023-02-20T10:45:21.832Z,102244.88
2023-02-20T10:47:53.269Z,102250.13
2023-02-20T10:50:24.547Z,102240.44
2023-02-20T10:52:55.047Z,102221.72
2023-02-20T10:55:26.637Z,102231.22
2023-02-20T10:57:57.211Z,102229.28
2023-02-20T11:00:28.309Z,102232.31
2023-02-20T11:02:58.329Z,102234.00
2023-02-20T11:05:27.255Z,102216.41
2023-02-20T11:07:54.120Z,102223.19
2023-02-20T11:10:21.103Z,102216.75
2023-02-20T11:12:50.407Z,102214.81
2023-02-20T11:15:19.551Z,102218.94
2023-02-20T11:17:48.910Z,102207.78
2023-02-20T11:20:18.926Z,102204.19
2023-02-20T11:22:47.017Z,102200.28
2023-02-20T11:25:15.620Z,102198.34
2023-02-20T11:27:42.622Z,102186.34
2023-02-20T11:30:12.661Z,102182.44
2023-02-20T11:32:40.024Z,102183.31
2023-02-20T11:35:09.955Z,102189.72
2023-02-20T11:37:49.237Z,102191.44
2023-02-20T11:40:26.479Z,102196.75
2023-02-20T11:42:54.715Z,102197.25
2023-02-20T11:45:24.845Z,102188.38
2023-02-20T11:47:54.924Z,102199.53
2023-02-20T11:50:22.008Z,102193.94
2023-02-20T11:52:51.986Z,102182.56
2023-02-20T11:55:21.746Z,102181.69
2023-02-20T11:57:48.925Z,102171.41
2023-02-20T12:00:17.741Z,102184.84
2023-02-20T12:02:47.733Z,102173.44
2023-02-20T12:05:15.561Z,102187.38
2023-02-20T12:07:44.748Z,102184.34
2023-02-20T12:10:14.810Z,102175.72
2023-02-20T12:12:42.197Z,102173.53
2023-02-20T12:15:12.243Z,102180.81
2023-02-20T12:17:48.963Z,102177.41
2023-02-20T12:20:17.813Z,102169.91
2023-02-20T12:22:47.738Z,102173.53
2023-02-20T12:25:17.719Z,102159.94
2023-02-20T12:27:51.025Z,102158.50
2023-02-20T12:30:21.016Z,102154.84
2023-02-20T12:32:50.997Z,102156.56
2023-02-20T12:35:21.484Z,102143.44
2023-02-20T12:37:56.312Z,102141.75
2023-02-20T12:40:32.711Z,102139.81
2023-02-20T12:43:02.784Z,102145.41
2023-02-20T12:45:32.860Z,102145.63
2023-02-20T12:48:02.815Z,102130.00
2023-02-20T12:50:40.063Z,102122.25
2023-02-20T12:53:10.099Z,102136.75
2023-02-20T12:55:45.320Z,102123.91
2023-02-20T12:58:13.542Z,102109.63
2023-02-20T13:00:43.606Z,102114.13
2023-02-20T13:03:12.234Z,102115.81
2023-02-20T13:05:42.586Z,102104.66
2023-02-20T13:08:12.972Z,102107.69
2023-02-20T13:10:46.139Z,102106.59
2023-02-20T13:13:13.328Z,102101.53
2023-02-20T13:15:44.214Z,102114.97
2023-02-20T13:18:11.429Z,102104.66
2023-02-20T13:20:44.611Z,102102.72
2023-02-20T13:23:14.930Z,102099.06
2023-02-20T13:25:43.793Z,102102.72
2023-02-20T13:28:13.742Z,102092.03
2023-02-20T13:30:41.498Z,102092.66
2023-02-20T13:33:11.522Z,102087.31
2023-02-20T13:35:41.612Z,102077.00
2023-02-20T13:38:11.879Z,102084.28
2023-02-20T13:40:40.494Z,102079.78
2023-02-20T13:43:19.604Z,102074.81
2023-02-20T13:45:47.130Z,102073.97
2023-02-20T13:48:17.141Z,102065.59
2023-02-20T13:50:44.333Z,102068.13
2023-02-20T13:53:11.952Z,102058.94
2023-02-20T13:55:39.580Z,102057.56
2023-02-20T13:58:09.538Z,102049.19
2023-02-20T14:00:45.690Z,102050.91
2023-02-20T14:03:15.719Z,102048.44
2023-02-20T14:05:42.743Z,102039.81
2023-02-20T14:08:16.967Z,102039.31
2023-02-20T14:10:47.842Z,102035.41
2023-02-20T14:13:19.830Z,102027.66
2023-02-20T14:15:49.682Z,102034.09
2023-02-20T14:18:18.822Z,102033.84
2023-02-20T14:20:46.248Z,102037.47
2023-02-20T14:23:13.576Z,102029.09
2023-02-20T14:25:49.271Z,102029.69
2023-02-20T14:28:22.270Z,102029.19
2023-02-20T14:31:03.215Z,102020.81
2023-02-20T14:33:31.685Z,102027.81
2023-02-20T14:36:00.763Z,102009.38
2023-02-20T14:38:31.130Z,102010.56
2023-02-20T14:40:59.649Z,102006.94
2023-02-20T14:43:28.876Z,102006.94
2023-02-20T14:45:58.899Z,102008.38
2023-02-20T14:48:28.892Z,102011.75
2023-02-20T14:50:58.840Z,102014.28
2023-02-20T14:53:25.775Z,102014.28
2023-02-20T14:55:52.758Z,102015.97
2023-02-20T14:58:23.600Z,102007.84
2023-02-20T15:00:51.358Z,102015.13
2023-02-20T15:03:29.850Z,102003.94
2023-02-20T15:06:01.238Z,101996.19
2023-02-20T15:08:32.109Z,101999.22
2023-02-20T15:11:06.439Z,102006.75
2023-02-20T15:13:36.830Z,102007.84
2023-02-20T15:16:06.659Z,102006.19
2023-02-20T15:18:35.438Z,102002.25
2023-02-20T15:21:03.112Z,101994.72
2023-02-20T15:23:31.800Z,101993.03
2023-02-20T15:25:59.274Z,101992.22
2023-02-20T15:28:28.264Z,101995.81
2023-02-20T15:31:03.874Z,101991.09
2023-02-20T15:33:31.561Z,101986.13
2023-02-20T15:35:59.243Z,101985.88
2023-02-20T15:38:29.076Z,101990.59
2023-02-20T15:40:57.495Z,101973.84
2023-02-20T15:43:38.127Z,101980.00
2023-02-20T15:46:12.626Z,101978.06
2023-02-20T15:48:39.906Z,101983.41
2023-02-20T15:51:07.151Z,101986.19
2023-02-20T15:53:34.054Z,101983.97
2023-02-20T15:56:02.154Z,101973.94
2023-02-20T15:58:35.285Z,101981.47
2023-02-20T16:01:02.643Z,101981.47
2023-02-20T16:03:33.878Z,101974.75
2023-02-20T16:06:05.939Z,101974.50
2023-02-20T16:08:32.906Z,101971.94
2023-02-20T16:10:59.915Z,101971.13
2023-02-20T16:13:27.263Z,101972.22
2023-02-20T16:15:54.315Z,101971.38
2023-02-20T16:18:23.796Z,101977.53
2023-02-20T16:20:51.712Z,101977.81
2023-02-20T16:23:18.909Z,101972.47
2023-02-20T16:25:46.018Z,101967.50
2023-02-20T16:28:14.151Z,101970.28
2023-02-20T16:30:42.425Z,101972.22
2023-02-20T16:33:12.870Z,101969.44
2023-02-20T16:35:40.519Z,101977.81
2023-02-20T16:38:07.499Z,101973.31
2023-02-20T16:40:34.572Z,101975.03
2023-02-20T16:43:01.533Z,101964.97
2023-02-20T16:45:28.527Z,101967.50
2023-02-20T16:47:58.067Z,101967.75
2023-02-20T16:50:28.969Z,101976.13
2023-02-20T16:52:57.603Z,101971.38
2023-02-20T16:55:27.102Z,101971.13
2023-02-20T16:57:54.943Z,101976.38
2023-02-20T17:00:23.541Z,101966.06
2023-02-20T17:02:50.580Z,101967.75
2023-02-20T17:05:19.308Z,101973.56
2023-02-20T17:07:46.438Z,101961.56
2023-02-20T17:10:13.757Z,101968.00
2023-02-20T17:12:40.766Z,101973.00
2023-02-20T17:15:08.239Z,101970.78
2023-02-20T17:17:35.171Z,101960.47
2023-02-20T17:20:02.348Z,101956.25
2023-02-20T17:22:29.413Z,101964.63
2023-02-20T17:24:56.955Z,101954.56
2023-02-20T17:27:24.502Z,101954.81
2023-02-20T17:29:51.776Z,101952.88
2023-02-20T17:32:19.402Z,101950.38
2023-02-20T17:34:46.403Z,101948.66
2023-02-20T17:37:13.648Z,101953.41
2023-02-20T17:39:40.706Z,101957.59
2023-02-20T17:42:07.804Z,101953.16
2023-02-20T17:44:34.996Z,101951.47
2023-02-20T17:47:02.361Z,101953.66
2023-02-20T17:49:29.471Z,101965.41
2023-02-20T17:51:59.353Z,101969.28
2023-02-20T17:54:26.947Z,101971.84
2023-02-20T17:56:54.265Z,101979.38
2023-02-20T17:59:21.759Z,101980.47
2023-02-20T18:01:48.732Z,101979.03
2023-02-20T18:04:15.841Z,101975.97
2023-02-20T18:06:42.802Z,101987.13
2023-02-20T18:09:10.262Z,101984.63
2023-02-20T18:11:37.391Z,101987.13
2023-02-20T18:14:04.547Z,101986.56
2023-02-20T18:16:31.563Z,101990.19
2023-02-20T18:18:59.612Z,101987.66
2023-02-20T18:21:27.991Z,101984.88
2023-02-20T18:23:55.188Z,101982.09
2023-02-20T18:26:22.312Z,101979.28
2023-02-20T18:28:49.625Z,101980.13
2023-02-20T18:31:18.395Z,101986.81
2023-02-20T18:33:45.645Z,101978.69
2023-02-20T18:36:12.768Z,101988.75
2023-02-20T18:38:39.737Z,101989.00
2023-02-20T18:41:09.439Z,101985.41
2023-02-20T18:43:37.063Z,101989.59
2023-02-20T18:46:04.247Z,101985.44
2023-02-20T18:48:31.353Z,101994.16
2023-02-20T18:50:58.862Z,101984.50
2023-02-20T18:53:25.840Z,101983.97
2023-02-20T18:55:52.808Z,101984.88
2023-02-20T18:58:19.820Z,101985.22
2023-02-20T19:00:46.798Z,101983.59
2023-02-20T19:03:13.854Z,101987.28
2023-02-20T19:05:41.071Z,101984.31
2023-02-20T19:08:07.999Z,101979.38
2023-02-20T19:10:34.975Z,101981.69
2023-02-20T19:13:01.939Z,101980.41
2023-02-20T19:15:28.844Z,101976.88
2023-02-20T19:17:55.776Z,101973.88
2023-02-20T19:20:27.430Z,101970.63
2023-02-20T19:22:56.243Z,101969.31
2023-02-20T19:25:23.597Z,101968.00
2023-02-20T19:27:50.484Z,101971.69
2023-02-20T19:30:17.923Z,101975.38
2023-02-20T19:32:44.911Z,101957.53
2023-02-20T19:35:12.665Z,101960.13
2023-02-20T19:37:39.555Z,101959.88
2023-02-20T19:40:07.651Z,101957.13
2023-02-20T19:42:35.231Z,101951.84
2023-02-20T19:45:02.170Z,101952.72
2023-02-20T19:47:29.266Z,101952.75
2023-02-20T19:49:56.153Z,101951.09
2023-02-20T19:52:23.521Z,101957.59
2023-02-20T19:54:50.399Z,101953.97
2023-02-20T19:57:17.467Z,101954.03
2023-02-20T19:59:44.431Z,101955.16
2023-02-20T20:02:12.266Z,101951.56
2023-02-20T20:04:39.411Z,101947.13
2023-02-20T20:07:06.339Z,101951.06
2023-02-20T20:09:37.098Z,101955.00
2023-02-20T20:12:05.382Z,101962.88
2023-02-20T20:14:32.370Z,101960.38
2023-02-20T20:16:59.336Z,101964.59
2023-02-20T20:19:26.447Z,101966.00
2023-02-20T20:21:53.303Z,101955.94
2023-02-20T20:24:20.259Z,101957.34
2023-02-20T20:26:47.458Z,101955.69
2023-02-20T20:29:14.398Z,101952.88
2023-02-20T20:31:41.889Z,101954.56
2023-02-20T20:34:09.071Z,101952.34
2023-02-20T20:36:36.073Z,101946.19
2023-02-20T20:39:03.113Z,101949.28
2023-02-20T20:41:36.126Z,101942.88
2023-02-20T20:44:10.078Z,101941.50
2023-02-20T20:46:37.458Z,101937.28
2023-02-20T20:49:04.365Z,101941.53
2023-02-20T20:51:31.224Z,101947.97
2023-02-20T20:53:58.108Z,101934.28
2023-02-20T20:56:25.049Z,101932.59
2023-02-20T20:58:51.924Z,101931.47
2023-02-20T21:01:19.131Z,101928.16
2023-02-20T21:03:46.062Z,101937.41
2023-02-20T21:06:13.207Z,101931.78
2023-02-20T21:08:40.134Z,101939.41
2023-02-20T21:11:07.327Z,101939.72
2023-02-20T21:13:34.525Z,101937.75
2023-02-20T21:16:01.471Z,101939.72
2023-02-20T21:18:28.366Z,101929.66
2023-02-20T21:20:55.349Z,101922.06
2023-02-20T21:23:22.210Z,101926.84
2023-02-20T21:25:49.291Z,101915.63
2023-02-20T21:28:16.183Z,101917.59
2023-02-20T21:30:43.227Z,101918.72
2023-02-20T21:33:10.149Z,101923.47
2023-02-20T21:35:37.168Z,101920.41
2023-02-20T21:38:04.088Z,101915.06
2023-02-20T21:40:31.025Z,101923.75
2023-02-20T21:43:01.012Z,101920.94
2023-02-20T21:45:27.911Z,101921.78
2023-02-20T21:47:54.968Z,101920.38
2023-02-20T21:50:22.003Z,101920.66
2023-02-20T21:52:49.652Z,101922.06
2023-02-20T21:55:17.810Z,101917.88
2023-02-20T21:57:44.886Z,101920.66
2023-02-20T22:00:12.661Z,101918.16
2023-02-20T22:02:39.743Z,101918.41
2023-02-20T22:05:07.930Z,101911.97
2023-02-20T22:07:37.989Z,101909.41
2023-02-20T22:10:08.291Z,101918.09
2023-02-20T22:12:38.218Z,101920.06
2023-02-20T22:15:09.192Z,101922.31
2023-02-20T22:17:39.302Z,101916.69
2023-02-20T22:20:09.715Z,101918.91
2023-02-20T22:22:41.137Z,101917.22
2023-02-20T22:25:13.256Z,101918.03
2023-02-20T22:27:43.210Z,101920.00
2023-02-20T22:30:13.743Z,101914.06
2023-02-20T22:32:43.876Z,101911.50
2023-02-20T22:35:15.695Z,101912.63
2023-02-20T22:37:48.386Z,101911.78
2023-02-20T22:40:18.432Z,101914.00
2023-02-20T22:42:48.316Z,101915.94
2023-02-20T22:45:18.616Z,101915.34
2023-02-20T22:47:48.644Z,101918.41
2023-02-20T22:50:18.855Z,101911.16
2023-02-20T22:52:48.821Z,101913.91
2023-02-20T22:55:18.870Z,101916.16
2023-02-20T22:57:48.939Z,101916.13
2023-02-20T23:00:19.018Z,101915.25
2023-02-20T23:02:48.974Z,101916.63
2023-02-20T23:05:18.933Z,101911.81
2023-02-20T23:07:48.931Z,101912.06
2023-02-20T23:10:19.172Z,101904.75
2023-02-20T23:12:49.102Z,101909.78
2023-02-20T23:15:19.338Z,101905.25
2023-02-20T23:17:49.520Z,101905.50
2023-02-20T23:20:20.907Z,101909.41
2023-02-20T23:22:50.830Z,101912.47
2023-02-20T23:25:20.767Z,101912.72
2023-02-20T23:27:52.595Z,101905.41
2023-02-20T23:30:22.612Z,101908.47
2023-02-20T23:32:52.680Z,101904.22
2023-02-20T23:35:22.708Z,101895.22
2023-02-20T23:37:53.207Z,101895.72
2023-02-20T23:40:30.939Z,101893.47
2023-02-20T23:43:05.933Z,101895.13
2023-02-20T23:45:35.888Z,101889.22
2023-02-20T23:48:07.659Z,101895.09
2023-02-20T23:50:37.786Z,101894.50
2023-02-20T23:53:07.719Z,101882.94
2023-02-20T23:55:37.768Z,101887.16
2023-02-20T23:58:07.915Z,101886.00
